createdAt,value
2023-08-10T00:03:01.417Z,95.01
2023-08-10T00:08:09.688Z,94.78
2023-08-10T00:13:17.788Z,94.85
2023-08-10T00:18:25.898Z,95.06
2023-08-10T00:23:33.849Z,94.81
2023-08-10T00:28:41.636Z,94.82
2023-08-10T00:33:49.369Z,94.93
2023-08-10T00:38:57.436Z,94.85
2023-08-10T00:44:05.675Z,94.60
2023-08-10T00:49:13.811Z,94.81
2023-08-10T00:54:21.565Z,94.82
2023-08-10T00:59:31.939Z,95.01
2023-08-10T01:04:39.636Z,95.85
2023-08-10T01:09:57.892Z,95.91
2023-08-10T01:15:14.449Z,95.39
2023-08-10T01:20:24.703Z,96.02
2023-08-10T01:25:34.333Z,95.61
2023-08-10T01:30:42.354Z,95.39
2023-08-10T01:35:50.069Z,94.99
2023-08-10T01:40:57.837Z,95.69
2023-08-10T01:46:06.261Z,96.25
2023-08-10T01:51:16.521Z,96.60
2023-08-10T01:56:24.645Z,96.51
2023-08-10T02:01:32.714Z,96.48
2023-08-10T02:06:41.863Z,96.67
2023-08-10T02:11:50.130Z,96.46
2023-08-10T02:16:57.923Z,95.34
2023-08-10T02:22:06.509Z,95.84
2023-08-10T02:27:14.651Z,96.14
2023-08-10T02:32:22.381Z,95.69
2023-08-10T02:37:30.138Z,96.02
2023-08-10T02:42:37.851Z,95.60
2023-08-10T02:47:46.151Z,95.27
2023-08-10T02:52:53.860Z,95.30
2023-08-10T02:58:01.948Z,95.04
2023-08-10T03:03:10.195Z,95.10
2023-08-10T03:08:17.881Z,95.60
2023-08-10T03:13:25.583Z,95.61
2023-08-10T03:18:33.512Z,95.81
2023-08-10T03:23:41.201Z,96.04
2023-08-10T03:28:49.725Z,95.69
2023-08-10T03:33:57.412Z,96.23
2023-08-10T03:39:05.271Z,96.84
2023-08-10T03:44:13.301Z,96.17
2023-08-10T03:49:24.140Z,95.63
2023-08-10T03:54:33.004Z,96.09
2023-08-10T03:59:40.716Z,96.17
2023-08-10T04:04:48.757Z,96.65
2023-08-10T04:09:56.438Z,96.76
2023-08-10T04:15:05.108Z,95.68
2023-08-10T04:20:15.386Z,96.11
2023-08-10T04:25:23.843Z,96.84
2023-08-10T04:30:31.819Z,96.60
2023-08-10T04:35:39.813Z,98.44
2023-08-10T04:40:47.540Z,98.85
2023-08-10T04:45:55.256Z,99.87
2023-08-10T04:51:03.544Z,100.00
2023-08-10T04:56:11.324Z,100.00
2023-08-10T05:01:19.402Z,100.00
2023-08-10T05:06:27.776Z,100.00
2023-08-10T05:11:35.584Z,100.00
2023-08-10T05:16:43.705Z,99.97
2023-08-10T05:21:51.713Z,99.69
2023-08-10T05:26:59.407Z,96.65
2023-08-10T05:32:08.057Z,93.79
2023-08-10T05:37:16.101Z,90.74
2023-08-10T05:42:24.580Z,89.36
2023-08-10T05:47:33.461Z,87.65
2023-08-10T05:52:41.960Z,86.81
2023-08-10T05:57:50.055Z,84.72
2023-08-10T06:02:57.812Z,84.15
2023-08-10T06:08:08.391Z,81.97
2023-08-10T06:13:16.110Z,81.03
2023-08-10T06:18:24.127Z,79.74
2023-08-10T06:23:32.248Z,79.34
2023-08-10T06:28:40.563Z,77.48
2023-08-10T06:33:48.445Z,75.77
2023-08-10T06:38:56.512Z,75.77
2023-08-10T06:44:04.701Z,72.93
2023-08-10T06:49:12.767Z,72.80
2023-08-10T06:54:21.770Z,70.60
2023-08-10T07:04:57.602Z,69.39
2023-08-10T07:10:07.349Z,68.72
2023-08-10T07:15:18.708Z,67.20
2023-08-10T07:20:27.148Z,65.71
2023-08-10T07:25:35.417Z,65.84
2023-08-10T07:30:43.211Z,64.94
2023-08-10T07:35:51.982Z,64.21
2023-08-10T07:40:59.911Z,62.03
2023-08-10T07:46:07.915Z,62.19
2023-08-10T07:51:16.058Z,61.28
2023-08-10T07:56:24.133Z,60.10
2023-08-10T08:01:35.112Z,58.82
2023-08-10T08:06:44.658Z,57.36
2023-08-10T08:11:55.909Z,55.78
2023-08-10T08:17:05.806Z,55.13
2023-08-10T08:22:16.872Z,52.95
2023-08-10T08:27:26.445Z,52.45
2023-08-10T08:32:50.538Z,51.64
2023-08-10T08:38:04.466Z,50.26
2023-08-10T08:43:14.296Z,51.11
2023-08-10T08:48:29.567Z,50.38
2023-08-10T08:53:54.004Z,49.02
2023-08-10T08:59:06.086Z,49.01
2023-08-10T09:04:14.281Z,48.19
2023-08-10T09:09:26.069Z,48.09
2023-08-10T09:14:33.966Z,46.78
2023-08-10T09:19:43.542Z,45.53
2023-08-10T09:24:54.027Z,47.12
2023-08-10T09:30:05.049Z,45.93
2023-08-10T09:35:18.560Z,45.06
2023-08-10T09:40:27.118Z,44.02
2023-08-10T09:45:36.786Z,44.45
2023-08-10T09:50:48.707Z,43.92
2023-08-10T09:55:59.633Z,42.15
2023-08-10T10:01:09.441Z,41.69
2023-08-10T10:06:20.489Z,41.06
2023-08-10T10:11:31.429Z,41.41
2023-08-10T10:16:39.793Z,41.05
2023-08-10T10:21:48.934Z,40.93
2023-08-10T10:27:06.732Z,40.74
2023-08-10T10:32:19.984Z,40.02
2023-08-10T10:37:34.190Z,42.30
2023-08-10T10:43:08.669Z,42.07
2023-08-10T10:48:17.187Z,43.11
2023-08-10T10:53:26.563Z,44.15
2023-08-10T10:58:34.425Z,43.29
2023-08-10T11:03:43.475Z,41.40
2023-08-10T11:08:54.877Z,39.23
2023-08-10T11:14:03.249Z,39.49
2023-08-10T11:19:14.448Z,40.76
2023-08-10T11:24:22.416Z,42.42
2023-08-10T11:29:32.341Z,41.86
2023-08-10T11:34:41.626Z,41.36
2023-08-10T11:39:49.299Z,38.64
2023-08-10T11:44:57.468Z,38.10
2023-08-10T11:50:07.455Z,37.74
2023-08-10T11:55:18.159Z,36.92
2023-08-10T12:00:31.585Z,36.76
2023-08-10T12:05:47.573Z,36.04
2023-08-10T12:11:06.310Z,37.03
2023-08-10T12:16:18.832Z,38.74
2023-08-10T12:21:27.041Z,42.63
2023-08-10T12:26:35.328Z,43.80
2023-08-10T12:31:43.849Z,41.83
2023-08-10T12:36:54.903Z,41.90
2023-08-10T12:42:04.247Z,40.44
2023-08-10T12:47:12.966Z,41.92
2023-08-10T12:52:21.016Z,42.40
2023-08-10T12:57:30.331Z,44.17
2023-08-10T13:02:39.062Z,43.74
2023-08-10T13:07:48.542Z,41.87
2023-08-10T13:12:57.171Z,39.84
2023-08-10T13:18:05.392Z,37.89
2023-08-10T13:23:13.178Z,39.44
2023-08-10T13:28:21.537Z,41.49
2023-08-10T13:33:30.233Z,42.08
2023-08-10T13:38:38.129Z,40.45
2023-08-10T13:43:49.832Z,39.57
2023-08-10T13:48:58.228Z,38.68
2023-08-10T13:54:07.292Z,39.03
2023-08-10T13:59:17.321Z,40.70
2023-08-10T14:04:25.281Z,41.45
2023-08-10T14:09:34.157Z,39.98
2023-08-10T14:14:42.821Z,39.18
2023-08-10T14:19:50.784Z,40.48
2023-08-10T14:24:58.554Z,41.78
2023-08-10T14:30:07.734Z,42.38
2023-08-10T14:35:15.917Z,40.79
2023-08-10T14:40:23.854Z,42.32
2023-08-10T14:45:31.705Z,43.59
2023-08-10T14:50:39.548Z,44.19
2023-08-10T14:55:47.371Z,44.21
2023-08-10T15:00:55.802Z,44.79
2023-08-10T15:06:08.564Z,45.88
2023-08-10T15:11:17.270Z,43.99
2023-08-10T15:16:25.041Z,48.10
2023-08-10T15:21:33.173Z,46.89
2023-08-10T15:26:41.163Z,45.81
2023-08-10T15:31:48.871Z,46.14
2023-08-10T15:36:58.393Z,48.26
2023-08-10T15:42:07.179Z,48.53
2023-08-10T15:47:15.018Z,50.71
2023-08-10T15:52:23.043Z,52.87
2023-08-10T15:57:30.815Z,53.11
2023-08-10T16:02:40.740Z,51.44
2023-08-10T16:07:50.924Z,51.84
2023-08-10T16:13:04.213Z,49.20
2023-08-10T16:18:26.790Z,48.12
2023-08-10T16:23:40.785Z,49.51
2023-08-10T16:28:56.363Z,50.67
2023-08-10T16:34:08.920Z,50.11
2023-08-10T16:39:19.853Z,52.74
2023-08-10T16:44:31.147Z,53.90
2023-08-10T16:49:40.837Z,54.27
2023-08-10T16:54:50.745Z,52.93
2023-08-10T17:00:08.319Z,52.88
2023-08-10T17:05:17.262Z,54.58
2023-08-10T17:10:27.890Z,53.41
2023-08-10T17:15:36.965Z,52.24
2023-08-10T17:20:45.580Z,51.96
2023-08-10T17:25:54.610Z,53.51
2023-08-10T17:31:06.709Z,53.87
2023-08-10T17:36:14.889Z,56.01
2023-08-10T17:41:25.433Z,58.15
2023-08-10T17:46:34.757Z,60.07
2023-08-10T17:51:44.328Z,63.87
2023-08-10T17:56:53.157Z,66.80
2023-08-10T18:02:01.598Z,69.06
2023-08-10T18:07:09.424Z,70.06
2023-08-10T18:12:17.219Z,71.14
2023-08-10T18:17:25.548Z,72.03
2023-08-10T18:22:33.617Z,72.42
2023-08-10T18:27:41.450Z,74.10
2023-08-10T18:32:49.691Z,74.73
2023-08-10T18:37:57.851Z,74.95
2023-08-10T18:43:05.928Z,75.15
2023-08-10T18:48:22.816Z,76.06
2023-08-10T18:53:31.575Z,76.34
2023-08-10T18:58:39.318Z,77.00
2023-08-10T19:03:47.167Z,77.53
2023-08-10T19:08:55.042Z,76.90
2023-08-10T19:14:02.707Z,77.63
2023-08-10T19:19:10.822Z,78.40
2023-08-10T19:24:18.566Z,79.66
2023-08-10T19:29:26.823Z,80.03
2023-08-10T19:34:34.535Z,80.20
2023-08-10T19:39:42.773Z,81.11
2023-08-10T19:44:50.412Z,81.63
2023-08-10T19:49:59.254Z,82.49
2023-08-10T19:55:09.325Z,83.47
2023-08-10T20:00:18.464Z,83.53
2023-08-10T20:05:26.652Z,83.04
2023-08-10T20:10:43.820Z,83.05
2023-08-10T20:15:58.781Z,84.38
2023-08-10T20:21:13.522Z,85.23
2023-08-10T20:26:25.599Z,84.68
2023-08-10T20:31:40.059Z,84.20
2023-08-10T20:36:51.725Z,83.89
2023-08-10T20:42:00.862Z,84.67
2023-08-10T20:47:09.226Z,85.48
2023-08-10T20:52:19.742Z,85.58
2023-08-10T20:57:33.504Z,85.35
2023-08-10T21:02:43.338Z,85.61
2023-08-10T21:07:51.561Z,85.69
2023-08-10T21:13:03.812Z,86.15
2023-08-10T21:18:12.939Z,86.22
2023-08-10T21:23:24.599Z,87.00
2023-08-10T21:28:45.320Z,87.59
2023-08-10T21:33:56.941Z,87.85
2023-08-10T21:39:08.338Z,87.57
2023-08-10T21:44:19.159Z,87.95
2023-08-10T21:49:37.624Z,87.46
2023-08-10T21:54:48.508Z,88.91
2023-08-10T22:00:01.055Z,89.04
2023-08-10T22:05:11.071Z,89.04
2023-08-10T22:10:20.587Z,88.71
2023-08-10T22:15:34.997Z,89.51
2023-08-10T22:20:44.279Z,89.85
2023-08-10T22:25:53.587Z,89.34
2023-08-10T22:31:05.418Z,89.55
2023-08-10T22:36:13.859Z,89.81
2023-08-10T22:41:24.092Z,90.25
2023-08-10T22:46:32.489Z,90.05
2023-08-10T22:51:40.846Z,90.87
2023-08-10T22:56:49.679Z,91.16
2023-08-10T23:01:57.616Z,90.95
2023-08-10T23:07:06.944Z,91.15
2023-08-10T23:12:14.679Z,91.88
2023-08-10T23:17:22.500Z,91.09
2023-08-10T23:22:30.887Z,90.92
2023-08-10T23:27:38.994Z,89.92
2023-08-10T23:32:46.724Z,91.44
2023-08-10T23:37:57.298Z,91.84
2023-08-10T23:43:05.431Z,90.64
2023-08-10T23:48:13.191Z,91.59
2023-08-10T23:53:21.544Z,91.51
2023-08-10T23:58:38.584Z,90.78
